createdAt,value
2022-10-22T00:01:33.347Z,1001.92
2022-10-22T00:04:06.313Z,1001.89
2022-10-22T00:06:39.254Z,1001.85
2022-10-22T00:09:12.361Z,1001.83
2022-10-22T00:11:45.320Z,1001.81
2022-10-22T00:14:18.251Z,1001.79
2022-10-22T00:16:54.302Z,1001.79
2022-10-22T00:19:27.310Z,1001.81
2022-10-22T00:22:00.304Z,1001.83
2022-10-22T00:24:33.185Z,1001.83
2022-10-22T00:27:06.362Z,1001.83
2022-10-22T00:29:42.255Z,1001.84
2022-10-22T00:32:21.253Z,1001.87
2022-10-22T00:34:54.358Z,1001.90
2022-10-22T00:37:27.313Z,1001.94
2022-10-22T00:40:00.331Z,1001.96
2022-10-22T00:42:33.356Z,1001.96
2022-10-22T00:45:06.375Z,1001.97
2022-10-22T00:47:39.323Z,1001.98
2022-10-22T00:50:12.365Z,1002.01
2022-10-22T00:52:45.347Z,1002.02
2022-10-22T00:55:18.357Z,1002.02
2022-10-22T00:57:51.289Z,1002.02
2022-10-22T01:00:24.375Z,1002.03
2022-10-22T01:02:57.312Z,1002.05
2022-10-22T01:05:30.400Z,1002.07
2022-10-22T01:08:03.470Z,1002.10
2022-10-22T01:10:36.157Z,1002.12
2022-10-22T01:13:09.457Z,1002.13
2022-10-22T01:15:42.335Z,1002.15
2022-10-22T01:18:15.325Z,1002.19
2022-10-22T01:20:48.420Z,1002.22
2022-10-22T01:23:21.358Z,1002.24
2022-10-22T01:25:54.357Z,1002.24
2022-10-22T01:28:27.423Z,1002.24
2022-10-22T01:31:00.358Z,1002.23
2022-10-22T01:33:33.473Z,1002.24
2022-10-22T01:36:06.432Z,1002.24
2022-10-22T01:38:39.427Z,1002.26
2022-10-22T01:41:12.381Z,1002.27
2022-10-22T01:43:45.499Z,1002.29
2022-10-22T01:46:18.363Z,1002.31
2022-10-22T01:48:51.431Z,1002.33
2022-10-22T01:51:24.476Z,1002.33
2022-10-22T01:53:57.400Z,1002.32
2022-10-22T01:56:30.499Z,1002.31
2022-10-22T01:59:03.391Z,1002.31
2022-10-22T02:01:36.479Z,1002.30
2022-10-22T02:04:09.460Z,1002.29
2022-10-22T02:06:42.431Z,1002.29
2022-10-22T02:09:15.501Z,1002.29
2022-10-22T02:11:48.464Z,1002.29
2022-10-22T02:14:21.453Z,1002.27
2022-10-22T02:16:54.431Z,1002.28
2022-10-22T02:19:27.537Z,1002.29
2022-10-22T02:22:00.423Z,1002.28
2022-10-22T02:24:33.475Z,1002.28
2022-10-22T02:27:06.140Z,1002.27
2022-10-22T02:29:39.173Z,1002.27
2022-10-22T02:32:15.354Z,1002.25
2022-10-22T02:34:48.467Z,1002.22
2022-10-22T02:37:21.581Z,1002.16
2022-10-22T02:39:54.492Z,1002.10
2022-10-22T02:42:27.502Z,1002.06
2022-10-22T02:45:00.450Z,1002.01
2022-10-22T02:47:33.523Z,1001.99
2022-10-22T02:50:09.432Z,1001.99
2022-10-22T02:52:39.875Z,1001.98
2022-10-22T02:55:12.494Z,1001.95
2022-10-22T02:57:45.480Z,1001.93
2022-10-22T03:00:18.479Z,1001.91
2022-10-22T03:02:51.548Z,1001.91
2022-10-22T03:05:24.548Z,1001.91
2022-10-22T03:07:57.504Z,1001.92
2022-10-22T03:10:30.593Z,1001.93
2022-10-22T03:13:03.557Z,1001.92
2022-10-22T03:15:36.446Z,1001.95
2022-10-22T03:18:09.204Z,1001.95
2022-10-22T03:20:42.291Z,1001.94
2022-10-22T03:23:15.655Z,1001.96
2022-10-22T03:25:48.593Z,1002.00
2022-10-22T03:28:21.628Z,1002.03
2022-10-22T03:30:54.505Z,1002.04
2022-10-22T03:33:27.529Z,1002.06
2022-10-22T03:36:00.342Z,1002.10
2022-10-22T03:38:33.546Z,1002.14
2022-10-22T03:41:06.559Z,1002.21
2022-10-22T03:43:45.588Z,1002.31
2022-10-22T03:46:18.583Z,1002.37
2022-10-22T03:48:51.656Z,1002.41
2022-10-22T03:51:24.430Z,1002.44
2022-10-22T03:53:57.650Z,1002.50
2022-10-22T03:56:30.615Z,1002.53
2022-10-22T03:59:03.486Z,1002.56
2022-10-22T04:01:36.692Z,1002.56
2022-10-22T04:04:09.624Z,1002.55
2022-10-22T04:06:42.580Z,1002.62
2022-10-22T04:09:15.728Z,1002.70
2022-10-22T04:12:02.532Z,1002.76
2022-10-22T04:14:35.685Z,1002.81
2022-10-22T04:17:08.621Z,1002.86
2022-10-22T04:19:41.709Z,1002.90
2022-10-22T04:22:14.616Z,1002.95
2022-10-22T04:24:47.819Z,1003.03
2022-10-22T04:27:20.602Z,1003.09
2022-10-22T04:29:53.596Z,1003.14
2022-10-22T04:32:26.359Z,1003.19
2022-10-22T04:34:59.690Z,1003.21
2022-10-22T04:37:32.379Z,1003.22
2022-10-22T04:40:05.492Z,1003.23
2022-10-22T04:42:38.715Z,1003.24
2022-10-22T04:45:11.703Z,1003.27
2022-10-22T04:47:44.431Z,1003.30
2022-10-22T04:50:17.689Z,1003.33
2022-10-22T04:52:50.570Z,1003.35
2022-10-22T04:55:23.562Z,1003.38
2022-10-22T04:57:56.376Z,1003.40
2022-10-22T05:00:29.727Z,1003.43
2022-10-22T05:03:02.526Z,1003.47
2022-10-22T05:05:35.393Z,1003.51
2022-10-22T05:08:08.515Z,1003.55
2022-10-22T05:10:41.501Z,1003.57
2022-10-22T05:13:14.760Z,1003.60
2022-10-22T05:15:47.547Z,1003.63
2022-10-22T05:18:22.578Z,1003.65
2022-10-22T05:20:53.437Z,1003.68
2022-10-22T05:23:26.540Z,1003.71
2022-10-22T05:25:59.703Z,1003.75
2022-10-22T05:28:32.791Z,1003.79
2022-10-22T05:31:05.704Z,1003.83
2022-10-22T05:33:38.803Z,1003.86
2022-10-22T05:36:14.661Z,1003.89
2022-10-22T05:38:47.814Z,1003.90
2022-10-22T05:41:20.776Z,1003.93
2022-10-22T05:43:53.783Z,1003.97
2022-10-22T05:46:26.719Z,1004.00
2022-10-22T05:48:59.809Z,1004.02
2022-10-22T05:51:32.416Z,1004.05
2022-10-22T05:54:19.705Z,1004.06
2022-10-22T05:56:52.726Z,1004.08
2022-10-22T05:59:25.732Z,1004.11
2022-10-22T06:01:59.001Z,1004.13
2022-10-22T06:04:32.762Z,1004.16
2022-10-22T06:07:05.839Z,1004.21
2022-10-22T06:09:38.719Z,1004.23
2022-10-22T06:12:11.849Z,1004.27
2022-10-22T06:14:44.748Z,1004.32
2022-10-22T06:17:17.475Z,1004.35
2022-10-22T06:19:50.581Z,1004.39
2022-10-22T06:22:23.812Z,1004.43
2022-10-22T06:24:56.502Z,1004.47
2022-10-22T06:27:29.720Z,1004.50
2022-10-22T06:30:02.528Z,1004.53
2022-10-22T06:32:39.775Z,1004.56
2022-10-22T06:35:12.574Z,1004.60
2022-10-22T06:37:45.670Z,1004.65
2022-10-22T06:40:18.799Z,1004.70
2022-10-22T06:42:51.918Z,1004.76
2022-10-22T06:45:24.904Z,1004.81
2022-10-22T06:47:57.671Z,1004.84
2022-10-22T06:50:30.595Z,1004.88
2022-10-22T06:53:03.865Z,1004.92
2022-10-22T06:55:36.525Z,1004.96
2022-10-22T06:58:09.737Z,1005.00
2022-10-22T07:00:42.540Z,1005.03
2022-10-22T07:03:15.837Z,1005.04
2022-10-22T07:05:48.559Z,1005.05
2022-10-22T07:08:21.916Z,1005.08
2022-10-22T07:10:54.948Z,1005.12
2022-10-22T07:13:27.934Z,1005.17
2022-10-22T07:16:00.947Z,1005.20
2022-10-22T07:18:33.691Z,1005.22
2022-10-22T07:21:06.645Z,1005.25
2022-10-22T07:23:39.738Z,1005.29
2022-10-22T07:26:12.601Z,1005.31
2022-10-22T07:28:45.652Z,1005.34
2022-10-22T07:31:18.587Z,1005.38
2022-10-22T07:33:51.701Z,1005.42
2022-10-22T07:36:24.886Z,1005.44
2022-10-22T07:38:57.975Z,1005.48
2022-10-22T07:41:30.623Z,1005.50
2022-10-22T07:44:03.989Z,1005.52
2022-10-22T07:46:36.961Z,1005.54
2022-10-22T07:49:09.865Z,1005.55
2022-10-22T07:51:43.016Z,1005.59
2022-10-22T07:54:15.887Z,1005.60
2022-10-22T07:56:49.028Z,1005.62
2022-10-22T07:59:21.979Z,1005.62
2022-10-22T08:01:54.606Z,1005.61
2022-10-22T08:04:27.979Z,1005.61
2022-10-22T08:07:00.885Z,1005.62
2022-10-22T08:09:33.660Z,1005.64
2022-10-22T08:12:06.695Z,1005.67
2022-10-22T08:14:39.676Z,1005.70
2022-10-22T08:17:12.650Z,1005.73
2022-10-22T08:19:45.804Z,1005.75
2022-10-22T08:22:18.712Z,1005.76
2022-10-22T08:24:51.805Z,1005.78
2022-10-22T08:27:24.747Z,1005.80
2022-10-22T08:29:57.844Z,1005.83
2022-10-22T08:32:30.758Z,1005.85
2022-10-22T08:35:03.841Z,1005.87
2022-10-22T08:37:36.812Z,1005.89
2022-10-22T08:40:09.684Z,1005.90
2022-10-22T08:42:43.386Z,1005.92
2022-10-22T08:45:16.100Z,1005.94
2022-10-22T08:47:48.781Z,1005.95
2022-10-22T08:50:22.099Z,1005.96
2022-10-22T08:52:54.987Z,1005.97
2022-10-22T08:55:27.844Z,1005.99
2022-10-22T08:58:00.862Z,1006.01
2022-10-22T09:00:33.810Z,1006.03
2022-10-22T09:03:07.055Z,1006.05
2022-10-22T09:05:39.774Z,1006.09
2022-10-22T09:08:12.722Z,1006.13
2022-10-22T09:10:48.638Z,1006.15
2022-10-22T09:13:21.799Z,1006.18
2022-10-22T09:15:54.924Z,1006.19
2022-10-22T09:18:27.989Z,1006.21
2022-10-22T09:21:00.946Z,1006.22
2022-10-22T09:23:33.865Z,1006.24
2022-10-22T09:26:06.908Z,1006.25
2022-10-22T09:28:39.911Z,1006.26
2022-10-22T09:31:12.919Z,1006.27
2022-10-22T09:33:45.874Z,1006.30
2022-10-22T09:36:18.888Z,1006.32
2022-10-22T09:38:51.824Z,1006.33
2022-10-22T09:41:25.136Z,1006.34
2022-10-22T09:43:58.107Z,1006.36
2022-10-22T09:46:30.897Z,1006.37
2022-10-22T09:49:03.770Z,1006.39
2022-10-22T09:51:36.930Z,1006.41
2022-10-22T09:54:09.783Z,1006.43
2022-10-22T09:56:42.912Z,1006.42
2022-10-22T09:59:15.965Z,1006.43
2022-10-22T10:01:48.842Z,1006.43
2022-10-22T10:04:21.858Z,1006.43
2022-10-22T10:06:54.867Z,1006.46
2022-10-22T10:09:27.986Z,1006.46
2022-10-22T10:12:00.983Z,1006.50
2022-10-22T10:14:33.823Z,1006.48
2022-10-22T10:17:07.042Z,1006.49
2022-10-22T10:19:39.834Z,1006.49
2022-10-22T10:22:12.832Z,1006.47
2022-10-22T10:24:45.894Z,1006.47
2022-10-22T10:27:19.025Z,1006.48
2022-10-22T10:29:51.904Z,1006.49
2022-10-22T10:32:25.049Z,1006.49
2022-10-22T10:34:57.895Z,1006.50
2022-10-22T10:37:31.248Z,1006.51
2022-10-22T10:40:04.254Z,1006.53
2022-10-22T10:42:37.153Z,1006.54
2022-10-22T10:45:10.134Z,1006.54
2022-10-22T10:47:43.433Z,1006.54
2022-10-22T10:50:16.205Z,1006.53
2022-10-22T10:52:49.209Z,1006.52
2022-10-22T10:55:21.867Z,1006.54
2022-10-22T10:57:55.133Z,1006.56
2022-10-22T11:00:28.193Z,1006.56
2022-10-22T11:03:00.909Z,1006.55
2022-10-22T11:05:34.237Z,1006.54
2022-10-22T11:08:07.182Z,1006.54
2022-10-22T11:10:40.016Z,1006.53
2022-10-22T11:13:12.922Z,1006.50
2022-10-22T11:15:46.076Z,1006.48
2022-10-22T11:18:19.046Z,1006.47
2022-10-22T11:20:52.242Z,1006.48
2022-10-22T11:23:25.581Z,1006.48
2022-10-22T11:25:58.195Z,1006.48
2022-10-22T11:28:31.319Z,1006.47
2022-10-22T11:31:04.213Z,1006.45
2022-10-22T11:33:37.322Z,1006.43
2022-10-22T11:36:10.279Z,1006.42
2022-10-22T11:38:43.266Z,1006.42
2022-10-22T11:41:16.280Z,1006.40
2022-10-22T11:43:49.254Z,1006.39
2022-10-22T11:46:22.306Z,1006.37
2022-10-22T11:48:55.193Z,1006.35
2022-10-22T11:51:28.307Z,1006.34
2022-10-22T11:54:01.273Z,1006.32
2022-10-22T11:56:34.312Z,1006.31
2022-10-22T11:59:07.320Z,1006.31
2022-10-22T12:01:40.262Z,1006.29
2022-10-22T12:04:13.336Z,1006.26
2022-10-22T12:06:46.334Z,1006.24
2022-10-22T12:09:19.290Z,1006.23
2022-10-22T12:11:52.344Z,1006.22
2022-10-22T12:14:25.377Z,1006.20
2022-10-22T12:16:58.296Z,1006.19
2022-10-22T12:19:31.385Z,1006.17
2022-10-22T12:22:04.312Z,1006.15
2022-10-22T12:24:37.373Z,1006.14
2022-10-22T12:27:12.407Z,1006.13
2022-10-22T12:29:43.353Z,1006.12
2022-10-22T12:32:16.301Z,1006.09
2022-10-22T12:37:22.400Z,1006.09
2022-10-22T12:39:55.316Z,1006.09
2022-10-22T12:42:28.379Z,1006.09
2022-10-22T12:45:01.369Z,1006.10
2022-10-22T12:47:34.325Z,1006.09
2022-10-22T12:50:07.388Z,1006.08
2022-10-22T12:52:40.724Z,1006.08
2022-10-22T12:55:13.341Z,1006.11
2022-10-22T12:57:46.341Z,1006.12
2022-10-22T13:00:19.391Z,1006.14
2022-10-22T13:02:52.401Z,1006.16
2022-10-22T13:05:25.371Z,1006.17
2022-10-22T13:07:58.429Z,1006.16
2022-10-22T13:10:31.459Z,1006.14
2022-10-22T13:13:04.502Z,1006.13
2022-10-22T13:15:37.436Z,1006.13
2022-10-22T13:18:16.343Z,1006.12
2022-10-22T13:20:49.416Z,1006.14
2022-10-22T13:23:22.380Z,1006.15
2022-10-22T13:25:55.434Z,1006.17
2022-10-22T13:28:28.459Z,1006.16
2022-10-22T13:31:01.371Z,1006.17
2022-10-22T13:33:34.467Z,1006.15
2022-10-22T13:36:07.480Z,1006.12
2022-10-22T13:38:40.442Z,1006.11
2022-10-22T13:41:13.463Z,1006.14
2022-10-22T13:43:46.434Z,1006.13
2022-10-22T13:46:19.409Z,1006.12
2022-10-22T13:48:52.484Z,1006.14
2022-10-22T13:51:25.432Z,1006.14
2022-10-22T13:53:58.457Z,1006.13
2022-10-22T13:56:31.245Z,1006.12
2022-10-22T13:59:04.125Z,1006.11
2022-10-22T14:01:37.473Z,1006.09
2022-10-22T14:04:10.494Z,1006.09
2022-10-22T14:06:43.474Z,1006.07
2022-10-22T14:09:16.643Z,1006.07
2022-10-22T14:11:49.512Z,1006.06
2022-10-22T14:14:22.450Z,1006.08
2022-10-22T14:16:55.506Z,1006.08
2022-10-22T14:19:28.521Z,1006.10
2022-10-22T14:22:01.421Z,1006.09
2022-10-22T14:24:34.514Z,1006.08
2022-10-22T14:27:07.518Z,1006.07
2022-10-22T14:29:40.520Z,1006.08
2022-10-22T14:32:13.495Z,1006.10
2022-10-22T14:34:46.531Z,1006.08
2022-10-22T14:37:19.498Z,1006.08
2022-10-22T14:39:52.551Z,1006.07
2022-10-22T14:42:25.182Z,1006.06
2022-10-22T14:44:58.321Z,1006.05
2022-10-22T14:47:31.501Z,1006.05
2022-10-22T14:50:04.605Z,1006.04
2022-10-22T14:52:37.626Z,1006.03
2022-10-22T14:55:10.541Z,1006.03
2022-10-22T14:57:44.040Z,1006.02
2022-10-22T15:00:17.497Z,1006.02
2022-10-22T15:02:50.594Z,1006.01
2022-10-22T15:05:23.633Z,1006.01
2022-10-22T15:07:56.566Z,1006.01
2022-10-22T15:10:29.631Z,1006.01
2022-10-22T15:13:02.570Z,1006.01
2022-10-22T15:15:39.530Z,1006.02
2022-10-22T15:18:08.230Z,1006.02
2022-10-22T15:20:41.238Z,1006.00
2022-10-22T15:23:14.296Z,1006.01
2022-10-22T15:25:47.347Z,1006.01
2022-10-22T15:28:20.340Z,1006.02
2022-10-22T15:30:53.391Z,1006.02
2022-10-22T15:33:26.389Z,1006.03
2022-10-22T15:35:59.378Z,1006.02
2022-10-22T15:38:32.407Z,1006.02
2022-10-22T15:41:05.839Z,1006.03
2022-10-22T15:43:38.465Z,1006.04
2022-10-22T15:46:11.301Z,1006.04
2022-10-22T15:48:44.549Z,1006.05
2022-10-22T15:51:17.611Z,1006.05
2022-10-22T15:53:50.480Z,1006.07
2022-10-22T15:56:23.369Z,1006.07
2022-10-22T15:58:56.410Z,1006.07
2022-10-22T16:01:29.576Z,1006.08
2022-10-22T16:04:02.480Z,1006.07
2022-10-22T16:06:35.308Z,1006.07
2022-10-22T16:09:08.499Z,1006.05
2022-10-22T16:11:41.568Z,1006.05
2022-10-22T16:14:14.335Z,1006.05
2022-10-22T16:16:47.405Z,1006.04
2022-10-22T16:19:20.588Z,1006.04
2022-10-22T16:21:53.783Z,1006.05
2022-10-22T16:24:27.366Z,1006.07
2022-10-22T16:27:00.376Z,1006.08
2022-10-22T16:29:33.657Z,1006.08
2022-10-22T16:32:06.576Z,1006.08
2022-10-22T16:34:39.679Z,1006.09
2022-10-22T16:37:12.720Z,1006.09
2022-10-22T16:39:45.729Z,1006.08
2022-10-22T16:42:18.641Z,1006.09
2022-10-22T16:44:51.764Z,1006.09
2022-10-22T16:47:24.696Z,1006.09
2022-10-22T16:49:57.659Z,1006.10
2022-10-22T16:52:30.739Z,1006.12
2022-10-22T16:55:03.398Z,1006.14
2022-10-22T16:57:36.717Z,1006.16
2022-10-22T17:00:09.612Z,1006.17
2022-10-22T17:02:42.727Z,1006.18
2022-10-22T17:05:15.764Z,1006.20
2022-10-22T17:07:48.720Z,1006.21
2022-10-22T17:12:54.491Z,1006.24
2022-10-22T17:15:27.419Z,1006.27
2022-10-22T17:18:00.736Z,1006.28
2022-10-22T17:20:33.499Z,1006.30
2022-10-22T17:23:06.414Z,1006.32
2022-10-22T17:25:39.590Z,1006.36
2022-10-22T17:28:12.898Z,1006.39
2022-10-22T17:30:46.419Z,1006.41
2022-10-22T17:33:19.448Z,1006.44
2022-10-22T17:35:52.494Z,1006.46
2022-10-22T17:38:25.562Z,1006.48
2022-10-22T17:41:01.638Z,1006.47
2022-10-22T17:43:31.851Z,1006.48
2022-10-22T17:46:04.832Z,1006.50
2022-10-22T17:48:37.518Z,1006.53
2022-10-22T17:51:10.480Z,1006.57
2022-10-22T17:53:43.708Z,1006.61
2022-10-22T17:56:16.493Z,1006.66
2022-10-22T17:58:49.795Z,1006.68
2022-10-22T18:01:22.647Z,1006.71
2022-10-22T18:03:55.569Z,1006.74
2022-10-22T18:06:28.866Z,1006.76
2022-10-22T18:09:01.630Z,1006.78
2022-10-22T18:11:34.627Z,1006.80
2022-10-22T18:14:07.476Z,1006.79
2022-10-22T18:16:40.819Z,1006.81
2022-10-22T18:19:13.486Z,1006.81
2022-10-22T18:21:46.604Z,1006.80
2022-10-22T18:24:19.667Z,1006.79
2022-10-22T18:26:52.676Z,1006.79
2022-10-22T18:29:25.706Z,1006.78
2022-10-22T18:31:58.633Z,1006.74
2022-10-22T18:34:31.590Z,1006.72
2022-10-22T18:37:04.694Z,1006.72
2022-10-22T18:39:37.686Z,1006.70
2022-10-22T18:42:10.612Z,1006.68
2022-10-22T18:44:43.721Z,1006.68
2022-10-22T18:47:16.539Z,1006.66
2022-10-22T18:49:49.526Z,1006.66
2022-10-22T18:52:22.707Z,1006.64
2022-10-22T18:54:55.725Z,1006.63
2022-10-22T18:57:28.696Z,1006.63
2022-10-22T19:00:01.724Z,1006.63
2022-10-22T19:02:34.777Z,1006.62
2022-10-22T19:05:07.739Z,1006.62
2022-10-22T19:07:41.327Z,1006.62
2022-10-22T19:10:13.581Z,1006.62
2022-10-22T19:12:46.588Z,1006.63
2022-10-22T19:15:19.945Z,1006.61
2022-10-22T19:17:55.808Z,1006.60
2022-10-22T19:20:28.937Z,1006.57
2022-10-22T19:23:01.922Z,1006.56
2022-10-22T19:25:34.625Z,1006.56
2022-10-22T19:28:07.907Z,1006.54
2022-10-22T19:30:40.601Z,1006.53
2022-10-22T19:33:13.744Z,1006.54
2022-10-22T19:35:46.750Z,1006.53
2022-10-22T19:38:19.714Z,1006.54
2022-10-22T19:40:52.670Z,1006.55
2022-10-22T19:43:25.959Z,1006.55
2022-10-22T19:45:58.719Z,1006.55
2022-10-22T19:48:32.032Z,1006.56
2022-10-22T19:51:05.043Z,1006.55
2022-10-22T19:53:37.935Z,1006.52
2022-10-22T19:56:10.636Z,1006.50
2022-10-22T19:58:43.660Z,1006.47
2022-10-22T20:01:17.156Z,1006.44
2022-10-22T20:03:50.000Z,1006.42
2022-10-22T20:06:23.041Z,1006.41
2022-10-22T20:08:56.414Z,1006.43
2022-10-22T20:11:28.983Z,1006.43
2022-10-22T20:14:04.672Z,1006.46
2022-10-22T20:16:38.052Z,1006.49
2022-10-22T20:19:10.770Z,1006.52
2022-10-22T20:21:44.043Z,1006.56
2022-10-22T20:24:16.709Z,1006.59
2022-10-22T20:26:49.718Z,1006.62
2022-10-22T20:29:22.869Z,1006.64
2022-10-22T20:31:56.066Z,1006.66
2022-10-22T20:34:29.071Z,1006.66
2022-10-22T20:37:02.119Z,1006.64
2022-10-22T20:39:34.707Z,1006.64
2022-10-22T20:42:08.048Z,1006.63
2022-10-22T20:44:40.907Z,1006.63
2022-10-22T20:47:13.740Z,1006.63
2022-10-22T20:49:46.734Z,1006.64
2022-10-22T20:52:19.945Z,1006.64
2022-10-22T20:54:52.736Z,1006.63
2022-10-22T20:57:25.790Z,1006.62
2022-10-22T20:59:58.945Z,1006.62
2022-10-22T21:02:31.873Z,1006.62
2022-10-22T21:05:04.924Z,1006.60
2022-10-22T21:07:37.901Z,1006.58
2022-10-22T21:10:10.756Z,1006.57
2022-10-22T21:12:45.866Z,1006.58
2022-10-22T21:15:18.787Z,1006.60
2022-10-22T21:17:52.101Z,1006.62
2022-10-22T21:20:25.146Z,1006.63
2022-10-22T21:22:58.089Z,1006.64
2022-10-22T21:25:31.104Z,1006.65
2022-10-22T21:28:03.947Z,1006.64
2022-10-22T21:30:36.959Z,1006.63
2022-10-22T21:33:09.787Z,1006.61
2022-10-22T21:35:42.871Z,1006.59
2022-10-22T21:38:15.789Z,1006.59
2022-10-22T21:40:48.911Z,1006.58
2022-10-22T21:43:21.881Z,1006.58
2022-10-22T21:45:54.967Z,1006.56
2022-10-22T21:48:27.953Z,1006.53
2022-10-22T21:51:00.931Z,1006.53
2022-10-22T21:53:33.991Z,1006.53
2022-10-22T21:58:56.909Z,1006.51
2022-10-22T22:01:30.335Z,1006.51
2022-10-22T22:04:03.130Z,1006.52
2022-10-22T22:06:36.116Z,1006.54
2022-10-22T22:09:09.224Z,1006.56
2022-10-22T22:11:42.192Z,1006.58
2022-10-22T22:14:15.077Z,1006.59
2022-10-22T22:16:48.257Z,1006.58
2022-10-22T22:19:21.196Z,1006.57
2022-10-22T22:21:54.237Z,1006.58
2022-10-22T22:24:27.110Z,1006.60
2022-10-22T22:27:00.174Z,1006.64
2022-10-22T22:29:33.191Z,1006.66
2022-10-22T22:32:06.147Z,1006.67
2022-10-22T22:34:39.244Z,1006.68
2022-10-22T22:37:12.199Z,1006.65
2022-10-22T22:39:45.238Z,1006.65
2022-10-22T22:42:18.187Z,1006.63
2022-10-22T22:44:51.269Z,1006.61
2022-10-22T22:47:24.260Z,1006.59
2022-10-22T22:49:57.266Z,1006.57
2022-10-22T22:52:30.259Z,1006.53
2022-10-22T22:55:03.249Z,1006.50
2022-10-22T22:57:36.187Z,1006.47
2022-10-22T23:00:09.233Z,1006.45
2022-10-22T23:02:42.519Z,1006.42
2022-10-22T23:05:15.174Z,1006.39
2022-10-22T23:07:48.259Z,1006.36
2022-10-22T23:10:21.282Z,1006.35
2022-10-22T23:12:54.196Z,1006.34
2022-10-22T23:15:27.259Z,1006.33
2022-10-22T23:18:00.315Z,1006.33
2022-10-22T23:20:33.248Z,1006.33
2022-10-22T23:23:06.295Z,1006.33
2022-10-22T23:25:39.272Z,1006.32
2022-10-22T23:28:12.232Z,1006.31
2022-10-22T23:30:45.278Z,1006.31
2022-10-22T23:33:18.345Z,1006.31
2022-10-22T23:35:51.280Z,1006.31
2022-10-22T23:38:24.362Z,1006.31
2022-10-22T23:40:57.271Z,1006.31
2022-10-22T23:43:30.297Z,1006.30
2022-10-22T23:46:03.285Z,1006.29
2022-10-22T23:48:42.170Z,1006.29
2022-10-22T23:51:15.253Z,1006.30
2022-10-22T23:53:48.293Z,1006.30
2022-10-22T23:56:21.307Z,1006.31
2022-10-22T23:58:54.325Z,1006.32
